sensor_id;sensor_type;location;lat;lon;timestamp;pressure;altitude;pressure_sealevel;temperature;humidity
64698;BME280;51124;53.394;-6.294;2023-06-14T00:01:15;101023.34;;;26.63;11.40
64698;BME280;51124;53.394;-6.294;2023-06-14T00:03:40;101024.67;;;26.31;11.33
64698;BME280;51124;53.394;-6.294;2023-06-14T00:06:05;101026.80;;;26.02;11.45
64698;BME280;51124;53.394;-6.294;2023-06-14T00:08:31;101027.96;;;26.50;11.36
64698;BME280;51124;53.394;-6.294;2023-06-14T00:10:56;101028.32;;;26.26;11.39
64698;BME280;51124;53.394;-6.294;2023-06-14T00:13:22;101029.74;;;26.78;11.43
64698;BME280;51124;53.394;-6.294;2023-06-14T00:15:47;101032.25;;;25.88;11.37
64698;BME280;51124;53.394;-6.294;2023-06-14T00:18:13;101032.08;;;26.21;11.43
64698;BME280;51124;53.394;-6.294;2023-06-14T00:20:38;101033.40;;;26.26;11.42
64698;BME280;51124;53.394;-6.294;2023-06-14T00:23:04;101033.61;;;26.10;11.44
64698;BME280;51124;53.394;-6.294;2023-06-14T00:25:29;101034.05;;;26.13;11.51
64698;BME280;51124;53.394;-6.294;2023-06-14T00:27:56;101037.02;;;25.81;11.45
64698;BME280;51124;53.394;-6.294;2023-06-14T00:30:21;101032.43;;;26.15;11.42
64698;BME280;51124;53.394;-6.294;2023-06-14T00:32:47;101034.91;;;25.57;11.51
64698;BME280;51124;53.394;-6.294;2023-06-14T00:35:13;101034.57;;;26.10;11.45
64698;BME280;51124;53.394;-6.294;2023-06-14T00:37:39;101032.22;;;26.07;11.42
64698;BME280;51124;53.394;-6.294;2023-06-14T00:40:05;101032.97;;;26.14;11.51
64698;BME280;51124;53.394;-6.294;2023-06-14T00:42:31;101032.65;;;26.70;11.44
64698;BME280;51124;53.394;-6.294;2023-06-14T00:44:56;101034.61;;;25.95;11.50
64698;BME280;51124;53.394;-6.294;2023-06-14T00:47:22;101031.73;;;26.69;11.48
64698;BME280;51124;53.394;-6.294;2023-06-14T00:49:48;101034.57;;;26.36;11.39
64698;BME280;51124;53.394;-6.294;2023-06-14T00:52:15;101034.32;;;26.29;11.46
64698;BME280;51124;53.394;-6.294;2023-06-14T00:54:41;101031.19;;;26.22;11.52
64698;BME280;51124;53.394;-6.294;2023-06-14T00:57:07;101030.85;;;26.48;11.50
64698;BME280;51124;53.394;-6.294;2023-06-14T00:59:33;101029.81;;;26.50;11.46
64698;BME280;51124;53.394;-6.294;2023-06-14T01:01:58;101030.30;;;26.07;11.51
64698;BME280;51124;53.394;-6.294;2023-06-14T01:04:24;101031.08;;;26.10;11.50
64698;BME280;51124;53.394;-6.294;2023-06-14T01:06:56;101031.61;;;26.04;11.49
64698;BME280;51124;53.394;-6.294;2023-06-14T01:09:31;101033.42;;;25.93;11.49
64698;BME280;51124;53.394;-6.294;2023-06-14T01:11:59;101034.96;;;26.12;11.52
64698;BME280;51124;53.394;-6.294;2023-06-14T01:14:26;101033.82;;;26.00;11.52
64698;BME280;51124;53.394;-6.294;2023-06-14T01:16:53;101033.91;;;26.27;11.47
64698;BME280;51124;53.394;-6.294;2023-06-14T01:19:18;101035.17;;;25.83;11.60
64698;BME280;51124;53.394;-6.294;2023-06-14T01:21:45;101035.96;;;25.84;11.50
64698;BME280;51124;53.394;-6.294;2023-06-14T01:24:11;101038.52;;;26.43;11.54
64698;BME280;51124;53.394;-6.294;2023-06-14T01:26:37;101041.89;;;25.90;11.56
64698;BME280;51124;53.394;-6.294;2023-06-14T01:29:03;101044.61;;;26.02;11.56
64698;BME280;51124;53.394;-6.294;2023-06-14T01:31:30;101048.39;;;25.93;11.59
64698;BME280;51124;53.394;-6.294;2023-06-14T01:33:55;101050.63;;;25.96;11.54
64698;BME280;51124;53.394;-6.294;2023-06-14T01:36:21;101050.41;;;26.55;11.50
64698;BME280;51124;53.394;-6.294;2023-06-14T01:38:48;101049.92;;;25.78;11.53
64698;BME280;51124;53.394;-6.294;2023-06-14T01:41:14;101052.46;;;26.15;11.59
64698;BME280;51124;53.394;-6.294;2023-06-14T01:43:41;101052.85;;;26.36;11.54
64698;BME280;51124;53.394;-6.294;2023-06-14T01:46:06;101051.19;;;25.68;11.53
64698;BME280;51124;53.394;-6.294;2023-06-14T01:48:33;101053.25;;;26.19;11.56
64698;BME280;51124;53.394;-6.294;2023-06-14T01:50:59;101052.06;;;25.54;11.61
64698;BME280;51124;53.394;-6.294;2023-06-14T01:53:24;101053.09;;;25.90;11.62
64698;BME280;51124;53.394;-6.294;2023-06-14T01:55:50;101051.79;;;26.26;11.57
64698;BME280;51124;53.394;-6.294;2023-06-14T01:58:15;101050.50;;;26.05;11.59
64698;BME280;51124;53.394;-6.294;2023-06-14T02:00:41;101052.06;;;25.69;11.70
64698;BME280;51124;53.394;-6.294;2023-06-14T02:03:06;101048.93;;;26.28;11.58
64698;BME280;51124;53.394;-6.294;2023-06-14T02:05:32;101050.04;;;26.02;11.56
64698;BME280;51124;53.394;-6.294;2023-06-14T02:07:57;101049.33;;;25.76;11.61
64698;BME280;51124;53.394;-6.294;2023-06-14T02:10:23;101050.11;;;26.10;11.61
64698;BME280;51124;53.394;-6.294;2023-06-14T02:12:48;101051.84;;;25.46;11.62
64698;BME280;51124;53.394;-6.294;2023-06-14T02:15:14;101049.56;;;26.01;11.53
64698;BME280;51124;53.394;-6.294;2023-06-14T02:17:39;101051.62;;;26.51;11.53
64698;BME280;51124;53.394;-6.294;2023-06-14T02:20:06;101053.68;;;25.41;11.59
64698;BME280;51124;53.394;-6.294;2023-06-14T02:22:32;101056.68;;;26.40;11.53
64698;BME280;51124;53.394;-6.294;2023-06-14T02:24:57;101052.91;;;25.41;11.51
64698;BME280;51124;53.394;-6.294;2023-06-14T02:27:23;101054.32;;;26.86;11.53
64698;BME280;51124;53.394;-6.294;2023-06-14T02:29:48;101053.65;;;26.37;11.53
64698;BME280;51124;53.394;-6.294;2023-06-14T02:32:13;101051.50;;;26.12;11.49
64698;BME280;51124;53.394;-6.294;2023-06-14T02:34:38;101051.78;;;26.32;11.49
64698;BME280;51124;53.394;-6.294;2023-06-14T02:37:04;101050.97;;;26.14;11.55
64698;BME280;51124;53.394;-6.294;2023-06-14T02:39:30;101049.34;;;25.69;11.54
64698;BME280;51124;53.394;-6.294;2023-06-14T02:41:55;101051.60;;;25.75;11.46
64698;BME280;51124;53.394;-6.294;2023-06-14T02:44:23;101054.26;;;26.31;11.51
64698;BME280;51124;53.394;-6.294;2023-06-14T02:46:49;101053.52;;;25.97;11.47
64698;BME280;51124;53.394;-6.294;2023-06-14T02:49:14;101055.90;;;26.01;11.50
64698;BME280;51124;53.394;-6.294;2023-06-14T02:51:40;101055.12;;;26.12;11.52
64698;BME280;51124;53.394;-6.294;2023-06-14T02:54:05;101055.62;;;26.15;11.50
64698;BME280;51124;53.394;-6.294;2023-06-14T02:56:31;101057.32;;;26.24;11.59
64698;BME280;51124;53.394;-6.294;2023-06-14T02:58:56;101057.99;;;26.17;11.54
64698;BME280;51124;53.394;-6.294;2023-06-14T03:01:22;101061.88;;;26.56;11.55
64698;BME280;51124;53.394;-6.294;2023-06-14T03:03:47;101062.97;;;26.11;11.57
64698;BME280;51124;53.394;-6.294;2023-06-14T03:06:13;101064.82;;;26.53;11.60
64698;BME280;51124;53.394;-6.294;2023-06-14T03:08:38;101063.37;;;26.18;11.49
64698;BME280;51124;53.394;-6.294;2023-06-14T03:11:04;101065.27;;;25.88;11.39
64698;BME280;51124;53.394;-6.294;2023-06-14T03:13:29;101067.56;;;25.73;11.49
64698;BME280;51124;53.394;-6.294;2023-06-14T03:15:54;101069.18;;;26.18;11.51
64698;BME280;51124;53.394;-6.294;2023-06-14T03:18:20;101068.34;;;26.26;11.53
64698;BME280;51124;53.394;-6.294;2023-06-14T03:20:45;101065.82;;;25.62;11.59
64698;BME280;51124;53.394;-6.294;2023-06-14T03:23:11;101069.58;;;26.19;11.53
64698;BME280;51124;53.394;-6.294;2023-06-14T03:25:37;101068.15;;;25.65;11.50
64698;BME280;51124;53.394;-6.294;2023-06-14T03:28:02;101069.96;;;26.75;11.47
64698;BME280;51124;53.394;-6.294;2023-06-14T03:30:29;101070.69;;;25.83;11.46
64698;BME280;51124;53.394;-6.294;2023-06-14T03:32:55;101068.91;;;26.03;11.49
64698;BME280;51124;53.394;-6.294;2023-06-14T03:35:21;101067.20;;;26.39;11.49
64698;BME280;51124;53.394;-6.294;2023-06-14T03:37:46;101065.29;;;25.99;11.57
64698;BME280;51124;53.394;-6.294;2023-06-14T03:40:15;101066.45;;;26.50;11.55
64698;BME280;51124;53.394;-6.294;2023-06-14T03:42:41;101064.28;;;25.98;11.51
64698;BME280;51124;53.394;-6.294;2023-06-14T03:45:08;101066.56;;;25.94;11.53
64698;BME280;51124;53.394;-6.294;2023-06-14T03:47:35;101068.93;;;26.85;11.47
64698;BME280;51124;53.394;-6.294;2023-06-14T03:50:01;101071.96;;;26.49;11.49
64698;BME280;51124;53.394;-6.294;2023-06-14T03:52:26;101074.97;;;25.67;11.61
64698;BME280;51124;53.394;-6.294;2023-06-14T03:54:52;101076.14;;;26.27;11.63
64698;BME280;51124;53.394;-6.294;2023-06-14T03:57:18;101080.99;;;25.45;11.55
64698;BME280;51124;53.394;-6.294;2023-06-14T03:59:44;101081.74;;;26.28;11.47
64698;BME280;51124;53.394;-6.294;2023-06-14T04:02:09;101087.71;;;26.41;11.46
64698;BME280;51124;53.394;-6.294;2023-06-14T04:04:35;101089.50;;;25.95;11.58
64698;BME280;51124;53.394;-6.294;2023-06-14T04:07:00;101088.56;;;26.04;11.61
64698;BME280;51124;53.394;-6.294;2023-06-14T04:09:26;101088.03;;;26.36;11.53
64698;BME280;51124;53.394;-6.294;2023-06-14T04:11:52;101091.36;;;26.60;11.54
64698;BME280;51124;53.394;-6.294;2023-06-14T04:14:17;101092.55;;;26.10;11.51
64698;BME280;51124;53.394;-6.294;2023-06-14T04:16:43;101093.63;;;26.55;11.53
64698;BME280;51124;53.394;-6.294;2023-06-14T04:19:08;101091.87;;;25.98;11.49
64698;BME280;51124;53.394;-6.294;2023-06-14T04:21:34;101092.04;;;25.92;11.61
64698;BME280;51124;53.394;-6.294;2023-06-14T04:23:59;101094.67;;;26.06;11.50
64698;BME280;51124;53.394;-6.294;2023-06-14T04:26:24;101095.76;;;25.61;11.59
64698;BME280;51124;53.394;-6.294;2023-06-14T04:28:50;101095.69;;;25.95;11.61
64698;BME280;51124;53.394;-6.294;2023-06-14T04:31:15;101099.49;;;26.31;11.66
64698;BME280;51124;53.394;-6.294;2023-06-14T04:33:41;101096.92;;;26.48;11.52
64698;BME280;51124;53.394;-6.294;2023-06-14T04:36:06;101098.87;;;26.16;11.49
64698;BME280;51124;53.394;-6.294;2023-06-14T04:38:32;101099.83;;;26.30;11.63
64698;BME280;51124;53.394;-6.294;2023-06-14T04:40:57;101097.61;;;25.92;11.60
64698;BME280;51124;53.394;-6.294;2023-06-14T04:43:22;101096.88;;;26.47;11.49
64698;BME280;51124;53.394;-6.294;2023-06-14T04:45:48;101099.72;;;26.44;11.41
64698;BME280;51124;53.394;-6.294;2023-06-14T04:48:13;101102.88;;;26.53;11.46
64698;BME280;51124;53.394;-6.294;2023-06-14T04:50:38;101100.07;;;26.21;11.46
64698;BME280;51124;53.394;-6.294;2023-06-14T04:53:04;101103.69;;;26.39;11.48
64698;BME280;51124;53.394;-6.294;2023-06-14T04:55:29;101106.44;;;25.90;11.51
64698;BME280;51124;53.394;-6.294;2023-06-14T04:57:54;101109.38;;;26.23;11.46
64698;BME280;51124;53.394;-6.294;2023-06-14T05:00:20;101111.67;;;25.96;11.49
64698;BME280;51124;53.394;-6.294;2023-06-14T05:02:46;101112.12;;;26.38;11.45
64698;BME280;51124;53.394;-6.294;2023-06-14T05:05:11;101111.83;;;26.49;11.45
64698;BME280;51124;53.394;-6.294;2023-06-14T05:07:37;101112.48;;;25.71;11.47
64698;BME280;51124;53.394;-6.294;2023-06-14T05:10:02;101111.39;;;26.64;11.42
64698;BME280;51124;53.394;-6.294;2023-06-14T05:12:28;101107.77;;;26.10;11.49
64698;BME280;51124;53.394;-6.294;2023-06-14T05:14:53;101104.44;;;26.17;11.44
64698;BME280;51124;53.394;-6.294;2023-06-14T05:17:19;101103.26;;;25.76;11.45
64698;BME280;51124;53.394;-6.294;2023-06-14T05:19:44;101105.22;;;26.74;11.47
64698;BME280;51124;53.394;-6.294;2023-06-14T05:22:09;101106.10;;;26.46;11.36
64698;BME280;51124;53.394;-6.294;2023-06-14T05:24:35;101111.56;;;26.47;11.47
64698;BME280;51124;53.394;-6.294;2023-06-14T05:27:00;101113.42;;;26.09;11.55
64698;BME280;51124;53.394;-6.294;2023-06-14T05:29:26;101114.35;;;26.07;11.41
64698;BME280;51124;53.394;-6.294;2023-06-14T05:31:51;101114.43;;;26.78;11.42
64698;BME280;51124;53.394;-6.294;2023-06-14T05:34:16;101121.31;;;26.10;11.50
64698;BME280;51124;53.394;-6.294;2023-06-14T05:36:42;101125.08;;;26.55;11.49
64698;BME280;51124;53.394;-6.294;2023-06-14T05:39:07;101127.48;;;26.15;11.46
64698;BME280;51124;53.394;-6.294;2023-06-14T05:41:33;101132.77;;;26.34;11.57
64698;BME280;51124;53.394;-6.294;2023-06-14T05:43:58;101133.87;;;25.96;11.56
64698;BME280;51124;53.394;-6.294;2023-06-14T05:46:24;101131.96;;;26.63;11.45
64698;BME280;51124;53.394;-6.294;2023-06-14T05:48:50;101131.96;;;26.90;11.42
64698;BME280;51124;53.394;-6.294;2023-06-14T05:51:16;101139.00;;;25.97;11.49
64698;BME280;51124;53.394;-6.294;2023-06-14T05:53:42;101135.34;;;26.49;11.46
64698;BME280;51124;53.394;-6.294;2023-06-14T05:56:07;101139.75;;;26.30;11.39
64698;BME280;51124;53.394;-6.294;2023-06-14T05:58:32;101143.14;;;26.36;11.47
64698;BME280;51124;53.394;-6.294;2023-06-14T06:00:58;101144.12;;;26.35;11.43
64698;BME280;51124;53.394;-6.294;2023-06-14T06:03:24;101146.95;;;26.20;11.50
64698;BME280;51124;53.394;-6.294;2023-06-14T06:05:49;101151.53;;;26.69;11.45
64698;BME280;51124;53.394;-6.294;2023-06-14T06:08:14;101155.52;;;26.57;11.48
64698;BME280;51124;53.394;-6.294;2023-06-14T06:10:40;101159.80;;;26.68;11.47
64698;BME280;51124;53.394;-6.294;2023-06-14T06:13:05;101161.14;;;26.42;11.42
64698;BME280;51124;53.394;-6.294;2023-06-14T06:15:31;101163.30;;;26.90;11.37
64698;BME280;51124;53.394;-6.294;2023-06-14T06:17:56;101163.46;;;26.20;11.39
64698;BME280;51124;53.394;-6.294;2023-06-14T06:20:22;101159.10;;;26.54;11.45
64698;BME280;51124;53.394;-6.294;2023-06-14T06:22:47;101158.80;;;26.05;11.37
64698;BME280;51124;53.394;-6.294;2023-06-14T06:25:13;101158.59;;;26.62;11.39
64698;BME280;51124;53.394;-6.294;2023-06-14T06:27:38;101157.27;;;26.35;11.43
64698;BME280;51124;53.394;-6.294;2023-06-14T06:30:04;101156.98;;;26.68;11.42
64698;BME280;51124;53.394;-6.294;2023-06-14T06:32:30;101160.03;;;26.51;11.37
64698;BME280;51124;53.394;-6.294;2023-06-14T06:34:55;101159.66;;;26.18;11.47
64698;BME280;51124;53.394;-6.294;2023-06-14T06:37:20;101162.22;;;26.18;11.46
64698;BME280;51124;53.394;-6.294;2023-06-14T06:39:46;101164.07;;;26.33;11.40
64698;BME280;51124;53.394;-6.294;2023-06-14T06:42:12;101165.66;;;26.54;11.35
64698;BME280;51124;53.394;-6.294;2023-06-14T06:44:37;101168.84;;;25.91;11.35
64698;BME280;51124;53.394;-6.294;2023-06-14T06:47:03;101169.22;;;26.65;11.34
64698;BME280;51124;53.394;-6.294;2023-06-14T06:49:28;101169.16;;;26.36;11.39
64698;BME280;51124;53.394;-6.294;2023-06-14T06:52:02;101170.24;;;26.73;11.45
64698;BME280;51124;53.394;-6.294;2023-06-14T06:54:27;101172.26;;;24.96;11.73
64698;BME280;51124;53.394;-6.294;2023-06-14T06:56:53;101174.79;;;25.96;11.71
64698;BME280;51124;53.394;-6.294;2023-06-14T06:59:18;101179.33;;;25.54;11.34
64698;BME280;51124;53.394;-6.294;2023-06-14T07:01:43;101178.60;;;26.10;11.66
64698;BME280;51124;53.394;-6.294;2023-06-14T07:04:09;101177.50;;;24.93;10.45
64698;BME280;51124;53.394;-6.294;2023-06-14T07:06:34;101179.95;;;25.42;10.49
64698;BME280;51124;53.394;-6.294;2023-06-14T07:09:00;101178.88;;;24.49;10.46
64698;BME280;51124;53.394;-6.294;2023-06-14T07:11:25;101177.75;;;24.26;9.69
64698;BME280;51124;53.394;-6.294;2023-06-14T07:13:51;101182.13;;;24.93;9.84
64698;BME280;51124;53.394;-6.294;2023-06-14T07:16:16;101182.81;;;25.48;9.85
64698;BME280;51124;53.394;-6.294;2023-06-14T07:18:42;101185.24;;;25.65;9.83
64698;BME280;51124;53.394;-6.294;2023-06-14T07:21:07;101186.48;;;25.38;9.86
64698;BME280;51124;53.394;-6.294;2023-06-14T07:23:33;101190.35;;;26.01;9.76
64698;BME280;51124;53.394;-6.294;2023-06-14T07:25:58;101198.48;;;26.53;9.53
64698;BME280;51124;53.394;-6.294;2023-06-14T07:28:24;101200.23;;;24.97;9.91
64698;BME280;51124;53.394;-6.294;2023-06-14T07:30:49;101204.56;;;25.79;9.72
64698;BME280;51124;53.394;-6.294;2023-06-14T07:33:15;101202.65;;;25.57;9.69
64698;BME280;51124;53.394;-6.294;2023-06-14T07:35:40;101206.15;;;26.70;9.77
64698;BME280;51124;53.394;-6.294;2023-06-14T07:38:05;101206.49;;;26.86;9.68
64698;BME280;51124;53.394;-6.294;2023-06-14T07:40:31;101208.79;;;26.45;9.94
64698;BME280;51124;53.394;-6.294;2023-06-14T07:42:56;101214.50;;;26.08;9.95
64698;BME280;51124;53.394;-6.294;2023-06-14T07:45:22;101211.47;;;26.79;9.93
64698;BME280;51124;53.394;-6.294;2023-06-14T07:47:47;101217.32;;;26.60;9.95
64698;BME280;51124;53.394;-6.294;2023-06-14T07:50:13;101217.58;;;26.17;10.09
64698;BME280;51124;53.394;-6.294;2023-06-14T07:52:38;101217.57;;;24.92;9.68
64698;BME280;51124;53.394;-6.294;2023-06-14T07:55:04;101216.76;;;26.37;9.81
64698;BME280;51124;53.394;-6.294;2023-06-14T07:57:30;101222.11;;;27.02;9.90
64698;BME280;51124;53.394;-6.294;2023-06-14T07:59:55;101224.13;;;26.47;9.94
64698;BME280;51124;53.394;-6.294;2023-06-14T08:02:20;101224.37;;;25.54;10.11
64698;BME280;51124;53.394;-6.294;2023-06-14T08:04:46;101225.55;;;25.31;9.71
64698;BME280;51124;53.394;-6.294;2023-06-14T08:07:12;101227.03;;;25.41;10.07
64698;BME280;51124;53.394;-6.294;2023-06-14T08:09:37;101228.36;;;26.11;9.81
64698;BME280;51124;53.394;-6.294;2023-06-14T08:12:03;101233.96;;;26.64;9.90
64698;BME280;51124;53.394;-6.294;2023-06-14T08:14:28;101236.25;;;26.10;9.90
64698;BME280;51124;53.394;-6.294;2023-06-14T08:16:54;101237.41;;;27.54;9.85
64698;BME280;51124;53.394;-6.294;2023-06-14T08:19:19;101241.98;;;26.62;10.00
64698;BME280;51124;53.394;-6.294;2023-06-14T08:21:45;101238.96;;;26.61;10.02
64698;BME280;51124;53.394;-6.294;2023-06-14T08:24:11;101238.54;;;26.51;10.05
64698;BME280;51124;53.394;-6.294;2023-06-14T08:26:37;101239.96;;;26.71;9.93
64698;BME280;51124;53.394;-6.294;2023-06-14T08:29:02;101243.79;;;27.42;10.05
64698;BME280;51124;53.394;-6.294;2023-06-14T08:31:27;101246.41;;;26.62;10.12
64698;BME280;51124;53.394;-6.294;2023-06-14T08:33:53;101248.10;;;27.40;10.16
64698;BME280;51124;53.394;-6.294;2023-06-14T08:36:18;101249.58;;;26.76;10.15
64698;BME280;51124;53.394;-6.294;2023-06-14T08:38:44;101254.85;;;26.83;10.31
64698;BME280;51124;53.394;-6.294;2023-06-14T08:41:12;101259.48;;;27.01;10.33
64698;BME280;51124;53.394;-6.294;2023-06-14T08:43:42;101260.01;;;27.36;10.39
64698;BME280;51124;53.394;-6.294;2023-06-14T08:46:08;101262.80;;;26.68;10.38
64698;BME280;51124;53.394;-6.294;2023-06-14T08:48:33;101264.86;;;27.05;10.27
64698;BME280;51124;53.394;-6.294;2023-06-14T08:51:00;101269.34;;;26.94;10.36
64698;BME280;51124;53.394;-6.294;2023-06-14T08:53:25;101270.18;;;27.07;10.27
64698;BME280;51124;53.394;-6.294;2023-06-14T08:55:51;101272.06;;;26.91;10.53
64698;BME280;51124;53.394;-6.294;2023-06-14T08:58:16;101273.48;;;26.59;10.32
64698;BME280;51124;53.394;-6.294;2023-06-14T09:00:43;101273.11;;;27.27;10.20
64698;BME280;51124;53.394;-6.294;2023-06-14T09:03:09;101273.29;;;26.64;10.33
64698;BME280;51124;53.394;-6.294;2023-06-14T09:05:34;101272.14;;;26.95;10.33
64698;BME280;51124;53.394;-6.294;2023-06-14T09:08:00;101269.74;;;27.71;10.34
64698;BME280;51124;53.394;-6.294;2023-06-14T09:10:25;101264.53;;;26.05;10.50
64698;BME280;51124;53.394;-6.294;2023-06-14T09:12:52;101259.71;;;27.51;10.19
64698;BME280;51124;53.394;-6.294;2023-06-14T09:15:18;101256.58;;;25.81;10.65
64698;BME280;51124;53.394;-6.294;2023-06-14T09:17:44;101259.02;;;27.58;10.01
64698;BME280;51124;53.394;-6.294;2023-06-14T09:20:10;101261.73;;;27.42;10.20
64698;BME280;51124;53.394;-6.294;2023-06-14T09:22:36;101265.09;;;27.19;10.20
64698;BME280;51124;53.394;-6.294;2023-06-14T09:25:02;101274.98;;;27.30;10.12
64698;BME280;51124;53.394;-6.294;2023-06-14T09:27:27;101279.13;;;26.98;10.24
64698;BME280;51124;53.394;-6.294;2023-06-14T09:29:53;101273.82;;;26.81;10.20
64698;BME280;51124;53.394;-6.294;2023-06-14T09:32:19;101275.87;;;27.06;10.24
64698;BME280;51124;53.394;-6.294;2023-06-14T09:34:45;101276.95;;;26.96;10.20
64698;BME280;51124;53.394;-6.294;2023-06-14T09:37:11;101276.23;;;27.61;10.20
64698;BME280;51124;53.394;-6.294;2023-06-14T09:39:36;101279.80;;;27.46;10.17
64698;BME280;51124;53.394;-6.294;2023-06-14T09:42:17;101282.58;;;27.46;10.30
64698;BME280;51124;53.394;-6.294;2023-06-14T09:44:33;101283.23;;;27.35;10.29
64698;BME280;51124;53.394;-6.294;2023-06-14T09:46:58;101278.98;;;26.74;10.41
64698;BME280;51124;53.394;-6.294;2023-06-14T09:49:23;101278.98;;;26.64;10.42
64698;BME280;51124;53.394;-6.294;2023-06-14T09:51:51;101276.88;;;26.59;10.33
64698;BME280;51124;53.394;-6.294;2023-06-14T09:54:22;101274.69;;;25.07;8.85
64698;BME280;51124;53.394;-6.294;2023-06-14T09:56:48;101280.07;;;24.96;8.50
64698;BME280;51124;53.394;-6.294;2023-06-14T09:59:19;101276.00;;;25.43;8.55
64698;BME280;51124;53.394;-6.294;2023-06-14T10:01:45;101275.72;;;25.00;7.50
64698;BME280;51124;53.394;-6.294;2023-06-14T10:04:13;101277.03;;;25.18;8.25
64698;BME280;51124;53.394;-6.294;2023-06-14T10:06:43;101281.90;;;26.45;8.19
64698;BME280;51124;53.394;-6.294;2023-06-14T10:09:09;101281.45;;;25.02;8.15
64698;BME280;51124;53.394;-6.294;2023-06-14T10:11:36;101276.71;;;25.70;8.61
64698;BME280;51124;53.394;-6.294;2023-06-14T10:14:03;101276.95;;;25.84;8.46
64698;BME280;51124;53.394;-6.294;2023-06-14T10:16:34;101274.85;;;26.90;8.54
64698;BME280;51124;53.394;-6.294;2023-06-14T10:19:07;101280.52;;;27.22;8.41
64698;BME280;51124;53.394;-6.294;2023-06-14T10:21:43;101280.87;;;26.47;8.72
64698;BME280;51124;53.394;-6.294;2023-06-14T10:24:14;101283.01;;;26.30;9.22
64698;BME280;51124;53.394;-6.294;2023-06-14T10:26:51;101281.27;;;25.42;7.49
64698;BME280;51124;53.394;-6.294;2023-06-14T10:29:08;101284.93;;;24.22;7.58
64698;BME280;51124;53.394;-6.294;2023-06-14T10:31:42;101282.51;;;25.79;7.31
64698;BME280;51124;53.394;-6.294;2023-06-14T10:34:08;101284.48;;;25.71;7.45
64698;BME280;51124;53.394;-6.294;2023-06-14T10:36:34;101286.30;;;26.24;7.87
64698;BME280;51124;53.394;-6.294;2023-06-14T10:39:01;101286.33;;;25.66;7.94
64698;BME280;51124;53.394;-6.294;2023-06-14T10:41:29;101287.32;;;26.18;7.89
64698;BME280;51124;53.394;-6.294;2023-06-14T10:44:43;101290.85;;;27.03;8.13
64698;BME280;51124;53.394;-6.294;2023-06-14T10:46:30;101287.70;;;26.05;8.37
64698;BME280;51124;53.394;-6.294;2023-06-14T10:48:58;101283.09;;;26.87;8.33
64698;BME280;51124;53.394;-6.294;2023-06-14T10:51:23;101284.66;;;26.83;8.62
64698;BME280;51124;53.394;-6.294;2023-06-14T10:53:49;101281.59;;;25.81;8.41
64698;BME280;51124;53.394;-6.294;2023-06-14T10:56:34;101284.19;;;26.54;8.23
64698;BME280;51124;53.394;-6.294;2023-06-14T10:58:49;101285.18;;;27.04;8.52
64698;BME280;51124;53.394;-6.294;2023-06-14T11:01:15;101280.67;;;26.66;8.45
64698;BME280;51124;53.394;-6.294;2023-06-14T11:03:51;101279.43;;;27.73;8.65
64698;BME280;51124;53.394;-6.294;2023-06-14T11:06:16;101276.56;;;27.35;8.63
64698;BME280;51124;53.394;-6.294;2023-06-14T11:09:02;101280.52;;;27.15;8.23
64698;BME280;51124;53.394;-6.294;2023-06-14T11:11:13;101282.97;;;27.01;8.40
64698;BME280;51124;53.394;-6.294;2023-06-14T11:13:41;101276.56;;;27.74;8.82
64698;BME280;51124;53.394;-6.294;2023-06-14T11:16:12;101276.27;;;26.82;8.92
64698;BME280;51124;53.394;-6.294;2023-06-14T11:18:37;101278.42;;;27.45;9.14
64698;BME280;51124;53.394;-6.294;2023-06-14T11:21:03;101278.05;;;27.57;9.14
64698;BME280;51124;53.394;-6.294;2023-06-14T11:23:29;101280.73;;;26.89;8.80
64698;BME280;51124;53.394;-6.294;2023-06-14T11:25:54;101280.62;;;28.02;8.90
64698;BME280;51124;53.394;-6.294;2023-06-14T11:28:20;101279.76;;;28.23;9.00
64698;BME280;51124;53.394;-6.294;2023-06-14T11:30:45;101279.22;;;28.04;8.88
64698;BME280;51124;53.394;-6.294;2023-06-14T11:33:11;101280.88;;;27.63;8.97
64698;BME280;51124;53.394;-6.294;2023-06-14T11:35:36;101276.97;;;28.02;9.09
64698;BME280;51124;53.394;-6.294;2023-06-14T11:38:03;101274.46;;;28.17;9.08
64698;BME280;51124;53.394;-6.294;2023-06-14T11:40:28;101275.50;;;27.82;9.17
64698;BME280;51124;53.394;-6.294;2023-06-14T11:42:59;101278.29;;;28.37;9.19
64698;BME280;51124;53.394;-6.294;2023-06-14T11:45:26;101277.59;;;27.88;9.24
64698;BME280;51124;53.394;-6.294;2023-06-14T11:47:53;101279.36;;;27.87;9.30
64698;BME280;51124;53.394;-6.294;2023-06-14T11:50:19;101274.45;;;28.47;9.09
64698;BME280;51124;53.394;-6.294;2023-06-14T11:52:45;101274.71;;;28.07;9.24
64698;BME280;51124;53.394;-6.294;2023-06-14T11:55:16;101265.79;;;27.66;9.37
64698;BME280;51124;53.394;-6.294;2023-06-14T11:57:42;101265.03;;;27.51;8.14
64698;BME280;51124;53.394;-6.294;2023-06-14T12:00:08;101266.32;;;26.50;7.92
64698;BME280;51124;53.394;-6.294;2023-06-14T12:02:34;101262.11;;;27.07;7.76
64698;BME280;51124;53.394;-6.294;2023-06-14T12:05:05;101263.30;;;27.29;7.73
64698;BME280;51124;53.394;-6.294;2023-06-14T12:07:31;101263.93;;;26.83;7.77
64698;BME280;51124;53.394;-6.294;2023-06-14T12:10:12;101263.36;;;25.88;8.08
64698;BME280;51124;53.394;-6.294;2023-06-14T12:12:28;101264.61;;;26.57;7.86
64698;BME280;51124;53.394;-6.294;2023-06-14T12:14:57;101264.27;;;26.28;7.92
64698;BME280;51124;53.394;-6.294;2023-06-14T12:17:23;101264.55;;;27.00;7.95
64698;BME280;51124;53.394;-6.294;2023-06-14T12:19:50;101265.43;;;27.17;7.88
64698;BME280;51124;53.394;-6.294;2023-06-14T12:22:15;101266.16;;;27.45;8.06
64698;BME280;51124;53.394;-6.294;2023-06-14T12:24:43;101261.77;;;28.28;8.09
64698;BME280;51124;53.394;-6.294;2023-06-14T12:27:09;101267.03;;;26.84;7.78
64698;BME280;51124;53.394;-6.294;2023-06-14T12:29:34;101267.71;;;26.84;7.93
64698;BME280;51124;53.394;-6.294;2023-06-14T12:32:00;101270.38;;;26.27;8.03
64698;BME280;51124;53.394;-6.294;2023-06-14T12:34:25;101264.80;;;25.96;8.11
64698;BME280;51124;53.394;-6.294;2023-06-14T12:36:51;101263.00;;;26.34;7.99